createdAt,value
2018-05-01T00:01:37.968Z,7.70
2018-05-01T00:04:04.739Z,7.70
2018-05-01T00:06:30.994Z,7.80
2018-05-01T00:08:57.270Z,7.80
2018-05-01T00:11:23.521Z,7.70
2018-05-01T00:13:49.777Z,7.60
2018-05-01T00:16:16.007Z,7.50
2018-05-01T00:18:42.235Z,7.60
2018-05-01T00:21:08.496Z,7.60
2018-05-01T00:23:34.934Z,7.50
2018-05-01T00:26:01.590Z,7.50
2018-05-01T00:28:27.857Z,7.60
2018-05-01T00:30:54.439Z,7.60
2018-05-01T00:33:20.665Z,7.60
2018-05-01T00:35:46.924Z,7.70
2018-05-01T00:38:13.642Z,7.60
2018-05-01T00:40:40.153Z,7.70
2018-05-01T00:43:06.617Z,7.60
2018-05-01T00:45:33.671Z,7.60
2018-05-01T00:47:59.907Z,7.60
2018-05-01T00:50:26.142Z,7.70
2018-05-01T00:52:53.145Z,7.60
2018-05-01T00:55:19.413Z,7.60
2018-05-01T00:57:48.767Z,7.60
2018-05-01T01:00:15.291Z,7.60
2018-05-01T01:02:42.495Z,7.50
2018-05-01T01:05:08.785Z,7.50
2018-05-01T01:07:35.016Z,7.60
2018-05-01T01:10:01.862Z,7.60
2018-05-01T01:12:28.178Z,7.60
2018-05-01T01:14:54.433Z,7.60
2018-05-01T01:17:21.481Z,7.60
2018-05-01T01:19:48.629Z,7.60
2018-05-01T01:22:15.876Z,7.60
2018-05-01T01:24:42.835Z,7.60
2018-05-01T01:27:09.410Z,7.50
2018-05-01T01:29:35.721Z,7.70
2018-05-01T01:32:14.944Z,7.60
2018-05-01T01:34:41.957Z,7.50
2018-05-01T01:37:08.319Z,7.50
2018-05-01T01:39:35.294Z,7.50
2018-05-01T01:42:02.110Z,7.50
2018-05-01T01:44:28.197Z,7.50
2018-05-01T01:46:54.285Z,7.60
2018-05-01T01:49:20.514Z,7.60
2018-05-01T01:51:47.355Z,7.60
2018-05-01T01:54:13.405Z,7.60
2018-05-01T01:56:40.907Z,7.60
2018-05-01T01:59:07.777Z,7.60
2018-05-01T02:01:35.369Z,7.60
2018-05-01T02:04:01.773Z,7.50
2018-05-01T02:06:27.849Z,7.60
2018-05-01T02:08:53.887Z,7.60
2018-05-01T02:11:21.052Z,7.60
2018-05-01T02:13:47.114Z,7.50
2018-05-01T02:16:13.935Z,7.50
2018-05-01T02:18:40.024Z,7.50
2018-05-01T02:21:06.077Z,7.60
2018-05-01T02:23:32.141Z,7.60
2018-05-01T02:25:58.517Z,7.50
2018-05-01T02:28:24.594Z,7.60
2018-05-01T02:30:52.024Z,7.60
2018-05-01T02:33:18.087Z,7.50
2018-05-01T02:35:44.153Z,7.60
2018-05-01T02:38:10.233Z,7.50
2018-05-01T02:40:36.752Z,7.50
2018-05-01T02:43:02.841Z,7.50
2018-05-01T02:45:28.901Z,7.30
2018-05-01T02:47:54.965Z,7.40
2018-05-01T02:50:21.758Z,7.40
2018-05-01T02:52:47.823Z,7.40
2018-05-01T02:55:14.626Z,7.40
2018-05-01T02:57:40.727Z,7.40
2018-05-01T03:00:06.773Z,7.40
2018-05-01T03:02:32.838Z,7.40
2018-05-01T03:04:58.897Z,7.30
2018-05-01T03:07:24.986Z,7.30
2018-05-01T03:09:51.163Z,7.20
2018-05-01T03:12:17.129Z,7.30
2018-05-01T03:14:43.238Z,7.30
2018-05-01T03:17:09.354Z,7.30
2018-05-01T03:19:35.412Z,7.30
2018-05-01T03:22:01.490Z,7.20
2018-05-01T03:24:27.546Z,7.20
2018-05-01T03:26:53.606Z,7.20
2018-05-01T03:29:19.749Z,7.20
2018-05-01T03:31:45.795Z,7.10
2018-05-01T03:34:11.883Z,7.10
2018-05-01T03:36:38.905Z,7.10
2018-05-01T03:39:05.048Z,7.10
2018-05-01T03:41:31.066Z,7.10
2018-05-01T03:43:58.011Z,7.10
2018-05-01T03:46:24.047Z,7.10
2018-05-01T03:48:50.178Z,7.00
2018-05-01T03:51:16.221Z,7.10
2018-05-01T03:53:42.365Z,7.10
2018-05-01T03:56:08.526Z,7.10
2018-05-01T03:58:34.590Z,7.20
2018-05-01T04:01:00.635Z,7.10
2018-05-01T04:03:26.906Z,7.10
2018-05-01T04:05:52.967Z,7.10
2018-05-01T04:08:20.419Z,7.10
2018-05-01T04:10:47.434Z,7.10
2018-05-01T04:13:13.678Z,7.00
2018-05-01T04:15:39.721Z,7.00
2018-05-01T04:18:05.798Z,7.10
2018-05-01T04:20:32.318Z,7.10
2018-05-01T04:22:58.389Z,7.20
2018-05-01T04:25:24.449Z,7.20
2018-05-01T04:27:50.733Z,7.20
2018-05-01T04:30:16.777Z,7.20
2018-05-01T04:32:42.887Z,7.30
2018-05-01T04:35:08.937Z,7.20
2018-05-01T04:37:35.003Z,7.20
2018-05-01T04:40:02.914Z,7.20
2018-05-01T04:42:29.304Z,7.20
2018-05-01T04:44:55.371Z,7.30
2018-05-01T04:47:21.462Z,7.40
2018-05-01T04:49:47.566Z,7.30
2018-05-01T04:52:13.752Z,7.40
2018-05-01T04:54:40.930Z,7.30
2018-05-01T04:57:07.549Z,7.40
2018-05-01T04:59:33.642Z,7.40
2018-05-01T05:02:00.256Z,7.40
2018-05-01T05:04:26.325Z,7.50
2018-05-01T05:06:52.375Z,7.50
2018-05-01T05:09:18.509Z,7.50
2018-05-01T05:11:44.565Z,7.50
2018-05-01T05:14:10.905Z,7.50
2018-05-01T05:16:37.062Z,7.50
2018-05-01T05:19:03.176Z,7.60
2018-05-01T05:21:29.217Z,7.50
2018-05-01T05:23:55.297Z,7.50
2018-05-01T05:26:21.352Z,7.50
2018-05-01T05:28:47.453Z,7.50
2018-05-01T05:31:13.597Z,7.50
2018-05-01T05:33:39.735Z,7.60
2018-05-01T05:36:05.809Z,7.60
2018-05-01T05:38:31.897Z,7.70
2018-05-01T05:40:57.945Z,7.70
2018-05-01T05:43:24.062Z,7.70
2018-05-01T05:45:50.157Z,7.70
2018-05-01T05:48:16.417Z,7.60
2018-05-01T05:50:42.833Z,7.60
2018-05-01T05:53:09.305Z,7.70
2018-05-01T05:55:35.748Z,7.70
2018-05-01T05:58:01.822Z,7.70
2018-05-01T06:00:27.897Z,7.80
2018-05-01T06:02:53.969Z,7.80
2018-05-01T06:05:20.050Z,7.80
2018-05-01T06:07:46.137Z,7.90
2018-05-01T06:10:12.222Z,7.80
2018-05-01T06:12:38.287Z,7.80
2018-05-01T06:15:04.369Z,7.90
2018-05-01T06:17:30.410Z,7.90
2018-05-01T06:19:56.485Z,7.90
2018-05-01T06:22:22.928Z,7.80
2018-05-01T06:24:49.038Z,7.90
2018-05-01T06:27:15.092Z,7.90
2018-05-01T06:29:41.185Z,7.80
2018-05-01T06:32:07.997Z,7.80
2018-05-01T06:34:34.465Z,8.00
2018-05-01T06:37:00.522Z,8.10
2018-05-01T06:39:26.597Z,8.10
2018-05-01T06:41:52.654Z,8.10
2018-05-01T06:44:19.732Z,8.20
2018-05-01T06:46:46.398Z,8.30
2018-05-01T06:49:12.475Z,8.30
2018-05-01T06:51:38.542Z,8.20
2018-05-01T06:54:04.619Z,8.30
2018-05-01T06:56:30.692Z,8.30
2018-05-01T06:58:57.412Z,8.40
2018-05-01T07:01:24.698Z,8.40
2018-05-01T07:03:51.289Z,8.40
2018-05-01T07:06:17.477Z,8.50
2018-05-01T07:08:43.525Z,8.50
2018-05-01T07:11:09.609Z,8.60
2018-05-01T07:13:35.685Z,8.70
2018-05-01T07:16:01.766Z,8.80
2018-05-01T07:18:27.829Z,9.00
2018-05-01T07:20:53.909Z,9.00
2018-05-01T07:23:20.258Z,9.00
2018-05-01T07:25:46.571Z,9.10
2018-05-01T07:28:14.001Z,8.90
2018-05-01T07:30:40.853Z,9.00
2018-05-01T07:33:06.885Z,9.00
2018-05-01T07:35:33.029Z,9.10
2018-05-01T07:37:59.794Z,9.10
2018-05-01T07:40:26.297Z,9.00
2018-05-01T07:42:53.111Z,9.20
2018-05-01T07:45:19.445Z,9.20
2018-05-01T07:47:45.497Z,9.20
2018-05-01T07:50:12.315Z,9.30
2018-05-01T07:52:38.361Z,9.30
2018-05-01T07:55:04.427Z,9.40
2018-05-01T07:57:31.040Z,9.40
2018-05-01T07:59:57.360Z,9.50
2018-05-01T08:02:23.411Z,9.60
2018-05-01T08:04:50.349Z,9.70
2018-05-01T08:07:16.533Z,9.50
2018-05-01T08:09:42.606Z,9.40
2018-05-01T08:12:08.711Z,9.50
2018-05-01T08:14:34.737Z,9.60
2018-05-01T08:17:01.041Z,9.60
2018-05-01T08:19:27.117Z,9.80
2018-05-01T08:21:53.950Z,9.80
2018-05-01T08:24:20.068Z,9.80
2018-05-01T08:26:46.736Z,10.00
2018-05-01T08:29:12.782Z,10.00
2018-05-01T08:31:39.153Z,10.00
2018-05-01T08:34:05.198Z,10.00
2018-05-01T08:36:31.302Z,9.90
2018-05-01T08:38:57.386Z,9.90
2018-05-01T08:41:23.486Z,10.00
2018-05-01T08:43:50.350Z,10.20
2018-05-01T08:46:17.161Z,10.30
2018-05-01T08:48:43.218Z,10.30
2018-05-01T08:51:09.281Z,10.40
2018-05-01T08:53:35.331Z,10.50
2018-05-01T08:56:01.607Z,10.70
2018-05-01T08:58:27.929Z,10.80
2018-05-01T09:00:54.563Z,10.90
2018-05-01T09:03:20.969Z,11.00
2018-05-01T09:05:47.363Z,11.20
2018-05-01T09:08:13.433Z,11.20
2018-05-01T09:10:39.503Z,11.40
2018-05-01T09:13:05.631Z,11.40
2018-05-01T09:15:31.722Z,11.30
2018-05-01T09:17:58.519Z,11.30
2018-05-01T09:20:25.333Z,11.40
2018-05-01T09:22:52.793Z,11.40
2018-05-01T09:25:18.905Z,11.40
2018-05-01T09:27:44.977Z,11.50
2018-05-01T09:30:11.076Z,11.40
2018-05-01T09:32:37.162Z,11.40
2018-05-01T09:35:03.203Z,11.50
2018-05-01T09:37:29.361Z,11.40
2018-05-01T09:39:55.445Z,11.40
2018-05-01T09:42:21.550Z,11.60
2018-05-01T09:44:47.607Z,11.60
2018-05-01T09:47:14.233Z,11.80
2018-05-01T09:49:40.297Z,11.80
2018-05-01T09:52:06.373Z,12.10
2018-05-01T09:54:32.636Z,12.00
2018-05-01T09:56:58.945Z,12.10
2018-05-01T09:59:25.889Z,12.00
2018-05-01T10:01:52.042Z,11.70
2018-05-01T10:04:18.745Z,11.60
2018-05-01T10:06:45.008Z,11.70
2018-05-01T10:09:11.286Z,11.80
2018-05-01T10:11:37.585Z,12.00
2018-05-01T10:14:03.824Z,12.10
2018-05-01T10:16:30.094Z,12.30
2018-05-01T10:18:56.577Z,12.30
2018-05-01T10:21:23.493Z,12.60
2018-05-01T10:23:49.738Z,13.00
2018-05-01T10:26:16.478Z,13.00
2018-05-01T10:28:42.909Z,13.30
2018-05-01T10:31:09.666Z,13.30
2018-05-01T10:33:35.957Z,13.20
2018-05-01T10:36:02.540Z,12.70
2018-05-01T10:38:28.833Z,12.40
2018-05-01T10:40:55.526Z,12.40
2018-05-01T10:43:21.798Z,12.80
2018-05-01T10:45:48.064Z,12.90
2018-05-01T10:48:14.880Z,12.80
2018-05-01T10:50:41.129Z,12.50
2018-05-01T10:53:07.726Z,12.50
2018-05-01T10:55:35.874Z,12.10
2018-05-01T10:58:06.644Z,12.10
2018-05-01T11:00:32.969Z,12.10
2018-05-01T11:02:59.970Z,12.30
2018-05-01T11:05:26.262Z,12.30
2018-05-01T11:07:52.990Z,12.20
2018-05-01T11:10:19.234Z,12.30
2018-05-01T11:12:45.801Z,12.70
2018-05-01T11:15:12.057Z,13.30
2018-05-01T11:17:39.265Z,13.50
2018-05-01T11:20:05.609Z,13.30
2018-05-01T11:22:32.243Z,13.20
2018-05-01T11:24:58.496Z,13.30
2018-05-01T11:27:24.758Z,13.70
2018-05-01T11:29:51.047Z,14.20
2018-05-01T11:32:17.820Z,14.60
2018-05-01T11:34:44.597Z,14.80
2018-05-01T11:37:10.862Z,15.10
2018-05-01T11:39:37.794Z,14.70
2018-05-01T11:42:04.057Z,14.70
2018-05-01T11:44:30.782Z,14.60
2018-05-01T11:46:57.054Z,14.70
2018-05-01T11:49:23.329Z,14.70
2018-05-01T11:51:49.841Z,14.50
2018-05-01T11:54:16.109Z,14.40
2018-05-01T11:56:42.590Z,14.40
2018-05-01T11:59:09.033Z,14.70
2018-05-01T12:01:35.281Z,14.70
2018-05-01T12:04:01.565Z,14.70
2018-05-01T12:06:27.861Z,15.00
2018-05-01T12:08:54.195Z,15.00
2018-05-01T12:11:20.445Z,15.40
2018-05-01T12:13:47.502Z,15.20
2018-05-01T12:16:14.789Z,15.00
2018-05-01T12:18:41.086Z,14.60
2018-05-01T12:21:07.406Z,14.70
2018-05-01T12:23:33.994Z,14.70
2018-05-01T12:26:00.356Z,14.90
2018-05-01T12:28:26.869Z,14.60
2018-05-01T12:30:53.109Z,14.60
2018-05-01T12:33:19.362Z,14.70
2018-05-01T12:35:45.633Z,14.90
2018-05-01T12:38:11.913Z,14.70
2018-05-01T12:40:38.502Z,14.30
2018-05-01T12:43:04.910Z,14.40
2018-05-01T12:45:31.462Z,15.00
2018-05-01T12:47:57.727Z,14.80
2018-05-01T12:50:23.989Z,14.40
2018-05-01T12:52:50.762Z,14.40
2018-05-01T12:55:17.042Z,15.10
2018-05-01T12:57:43.854Z,15.40
2018-05-01T13:00:10.138Z,15.70
2018-05-01T13:02:36.382Z,16.00
2018-05-01T13:05:02.724Z,15.70
2018-05-01T13:07:28.937Z,16.00
2018-05-01T13:09:55.193Z,16.10
2018-05-01T13:12:21.665Z,16.00
2018-05-01T13:14:47.969Z,15.60
2018-05-01T13:17:14.473Z,15.90
2018-05-01T13:19:40.747Z,16.10
2018-05-01T13:22:07.017Z,17.00
2018-05-01T13:24:33.398Z,17.10
2018-05-01T13:26:59.673Z,17.30
2018-05-01T13:29:26.003Z,17.00
2018-05-01T13:31:53.014Z,16.00
2018-05-01T13:34:19.354Z,16.00
2018-05-01T13:36:45.597Z,15.50
2018-05-01T13:39:12.577Z,15.30
2018-05-01T13:41:38.825Z,15.50
2018-05-01T13:44:05.330Z,16.40
2018-05-01T13:46:31.570Z,17.20
2018-05-01T13:48:59.290Z,18.90
2018-05-01T13:51:25.540Z,18.80
2018-05-01T13:53:51.817Z,20.90
2018-05-01T13:56:18.387Z,20.30
2018-05-01T13:58:44.655Z,18.50
2018-05-01T14:01:11.617Z,17.10
2018-05-01T14:03:37.922Z,16.40
2018-05-01T14:09:35.901Z,18.70
2018-05-01T14:12:05.221Z,18.00
2018-05-01T14:14:34.070Z,16.90
2018-05-01T14:17:02.409Z,16.20
2018-05-01T14:19:31.983Z,15.70
2018-05-01T14:22:00.930Z,15.50
2018-05-01T14:24:30.493Z,15.30
2018-05-01T14:29:31.397Z,15.30
2018-05-01T14:31:59.773Z,16.10
2018-05-01T14:34:28.260Z,16.60
2018-05-01T14:36:56.619Z,16.30
2018-05-01T14:39:25.175Z,16.10
2018-05-01T14:41:53.542Z,15.60
2018-05-01T14:44:22.925Z,15.50
2018-05-01T14:46:52.401Z,15.40
2018-05-01T14:49:20.865Z,15.20
2018-05-01T14:51:49.930Z,15.10
2018-05-01T14:54:18.309Z,15.40
2018-05-01T14:56:46.621Z,15.50
2018-05-01T14:59:15.418Z,15.80
2018-05-01T15:01:44.484Z,16.00
2018-05-01T15:04:12.809Z,16.30
2018-05-01T15:06:42.286Z,16.60
2018-05-01T15:09:11.386Z,16.40
2018-05-01T15:14:09.982Z,16.10
2018-05-01T15:16:38.821Z,16.10
2018-05-01T15:19:07.909Z,16.10
2018-05-01T15:21:36.249Z,16.90
2018-05-01T15:24:05.349Z,18.10
2018-05-01T15:31:31.382Z,16.10
2018-05-01T15:34:00.235Z,15.90
2018-05-01T15:36:29.338Z,15.70
2018-05-01T15:41:27.682Z,15.40
2018-05-01T15:43:56.746Z,15.20
2018-05-01T15:46:25.805Z,15.20
2018-05-01T15:51:23.938Z,15.40
2018-05-01T15:53:52.226Z,15.40
2018-05-01T15:56:21.774Z,15.40
2018-05-01T16:03:48.845Z,15.20
2018-05-01T16:06:17.201Z,15.10
2018-05-01T16:08:46.199Z,14.90
2018-05-01T16:11:14.501Z,14.70
2018-05-01T16:16:11.635Z,15.40
2018-05-01T16:18:41.703Z,15.60
2018-05-01T16:21:10.194Z,16.00
2018-05-01T16:23:38.444Z,16.30
2018-05-01T16:26:06.756Z,16.40
2018-05-01T16:28:35.029Z,16.00
2018-05-01T16:31:03.305Z,15.60
2018-05-01T16:33:31.577Z,15.50
2018-05-01T16:35:59.872Z,15.30
2018-05-01T16:38:28.306Z,15.30
2018-05-01T16:40:56.673Z,15.50
2018-05-01T16:43:24.926Z,16.10
2018-05-01T16:45:53.197Z,17.30
2018-05-01T16:48:21.594Z,17.00
2018-05-01T16:50:50.338Z,16.20
2018-05-01T16:53:19.214Z,15.80
2018-05-01T16:58:16.945Z,15.30
2018-05-01T17:03:16.125Z,15.00
2018-05-01T17:05:44.438Z,14.70
2018-05-01T17:08:12.750Z,14.60
2018-05-01T17:10:41.101Z,14.50
2018-05-01T17:13:10.157Z,14.50
2018-05-01T17:15:38.733Z,14.50
2018-05-01T17:18:07.566Z,14.40
2018-05-01T17:20:37.388Z,14.20
2018-05-01T17:23:05.731Z,14.10
2018-05-01T17:25:34.141Z,14.00
2018-05-01T17:28:02.440Z,13.90
2018-05-01T17:30:30.817Z,13.90
2018-05-01T17:32:59.110Z,13.90
2018-05-01T17:35:27.518Z,13.90
2018-05-01T17:37:55.836Z,13.80
2018-05-01T17:40:24.275Z,13.80
2018-05-01T17:42:52.557Z,13.70
2018-05-01T17:45:20.842Z,13.70
2018-05-01T17:47:49.133Z,13.70
2018-05-01T17:50:17.405Z,13.70
2018-05-01T17:55:15.010Z,13.60
2018-05-01T17:57:43.394Z,13.60
2018-05-01T18:00:11.894Z,13.50
2018-05-01T18:02:40.201Z,13.40
2018-05-01T18:05:08.786Z,13.30
2018-05-01T18:07:37.065Z,13.30
2018-05-01T18:10:05.326Z,13.20
2018-05-01T18:12:33.939Z,13.10
2018-05-01T18:15:02.189Z,13.00
2018-05-01T18:17:30.469Z,12.90
2018-05-01T18:19:58.754Z,12.90
2018-05-01T18:22:27.057Z,12.80
2018-05-01T18:24:55.357Z,12.70
2018-05-01T18:27:23.641Z,12.60
2018-05-01T18:29:51.894Z,12.60
2018-05-01T18:32:20.178Z,12.40
2018-05-01T18:34:48.522Z,12.30
2018-05-01T18:37:16.901Z,12.30
2018-05-01T18:39:45.525Z,12.20
2018-05-01T18:42:13.926Z,12.10
2018-05-01T18:44:42.186Z,12.00
2018-05-01T18:47:10.471Z,11.90
2018-05-01T18:49:38.730Z,11.80
2018-05-01T18:52:07.893Z,11.70
2018-05-01T18:54:36.469Z,11.50
2018-05-01T18:59:34.341Z,11.40
2018-05-01T19:02:02.633Z,11.40
2018-05-01T19:04:31.237Z,11.40
2018-05-01T19:06:59.501Z,11.40
2018-05-01T19:09:27.774Z,11.20
2018-05-01T19:11:56.446Z,11.10
2018-05-01T19:14:24.733Z,11.00
2018-05-01T19:16:53.217Z,10.90
2018-05-01T19:19:21.518Z,10.80
2018-05-01T19:21:49.861Z,10.80
2018-05-01T19:24:20.644Z,10.80
2018-05-01T19:26:49.303Z,10.70
2018-05-01T19:29:17.653Z,10.50
2018-05-01T19:31:46.597Z,10.40
2018-05-01T19:34:14.896Z,10.40
2018-05-01T19:36:43.153Z,10.40
2018-05-01T19:39:11.442Z,10.40
2018-05-01T19:41:39.739Z,10.30
2018-05-01T19:44:08.021Z,10.30
2018-05-01T19:46:38.447Z,10.20
2018-05-01T19:49:06.823Z,10.20
2018-05-01T19:51:39.608Z,10.10
2018-05-01T19:54:09.566Z,10.10
2018-05-01T19:56:38.016Z,10.00
2018-05-01T19:59:06.335Z,10.00
2018-05-01T20:01:34.824Z,9.90
2018-05-01T20:04:03.201Z,9.80
2018-05-01T20:06:32.087Z,9.80
2018-05-01T20:09:00.666Z,9.70
2018-05-01T20:11:28.945Z,9.60
2018-05-01T20:13:57.239Z,9.60
2018-05-01T20:16:25.778Z,9.50
2018-05-01T20:18:54.057Z,9.60
2018-05-01T20:21:22.441Z,9.50
2018-05-01T20:23:50.745Z,9.50
2018-05-01T20:26:19.082Z,9.50
2018-05-01T20:28:47.353Z,9.40
2018-05-01T20:31:16.610Z,9.40
2018-05-01T20:33:45.644Z,9.30
2018-05-01T20:36:14.674Z,9.20
2018-05-01T20:38:45.496Z,9.20
2018-05-01T20:41:13.783Z,9.20
2018-05-01T20:43:42.105Z,9.10
2018-05-01T20:46:10.449Z,9.00
2018-05-01T20:48:38.846Z,8.90
2018-05-01T20:51:07.182Z,8.90
2018-05-01T20:56:05.643Z,8.70
2018-05-01T20:58:34.701Z,8.60
2018-05-01T21:01:02.988Z,8.60
2018-05-01T21:03:31.261Z,8.50
2018-05-01T21:05:59.577Z,8.50
2018-05-01T21:08:27.854Z,8.40
2018-05-01T21:13:26.004Z,8.30
2018-05-01T21:15:55.123Z,8.20
2018-05-01T21:18:24.157Z,8.20
2018-05-01T21:20:53.063Z,8.10
2018-05-01T21:23:21.362Z,8.00
2018-05-01T21:28:18.557Z,8.00
2018-05-01T21:30:46.854Z,8.00
2018-05-01T21:33:15.138Z,8.00
2018-05-01T21:35:43.436Z,8.00
2018-05-01T21:38:12.486Z,8.00
2018-05-01T21:40:40.774Z,8.00
2018-05-01T21:43:09.061Z,8.00
2018-05-01T21:45:37.549Z,7.90
2018-05-01T21:48:05.840Z,7.90
2018-05-01T21:50:34.126Z,7.80
2018-05-01T21:55:31.274Z,7.70
2018-05-01T21:58:00.222Z,7.70
2018-05-01T22:00:29.821Z,7.60
2018-05-01T22:05:27.593Z,7.60
2018-05-01T22:07:56.014Z,7.60
2018-05-01T22:10:24.287Z,7.50
2018-05-01T22:12:52.582Z,7.40
2018-05-01T22:15:21.046Z,7.40
2018-05-01T22:17:49.327Z,7.50
2018-05-01T22:20:17.741Z,7.50
2018-05-01T22:22:46.493Z,7.40
2018-05-01T22:25:14.771Z,7.30
2018-05-01T22:27:44.583Z,7.20
2018-05-01T22:30:12.857Z,7.20
2018-05-01T22:32:41.430Z,7.20
2018-05-01T22:35:09.710Z,7.20
2018-05-01T22:37:38.175Z,7.20
2018-05-01T22:40:06.440Z,7.20
2018-05-01T22:42:34.737Z,7.10
2018-05-01T22:45:03.054Z,7.00
2018-05-01T22:47:31.378Z,7.10
2018-05-01T22:49:59.822Z,7.00
2018-05-01T22:52:28.133Z,6.90
2018-05-01T22:54:56.514Z,6.80
2018-05-01T22:57:24.888Z,6.80
2018-05-01T22:59:53.178Z,6.90
2018-05-01T23:02:21.465Z,6.80
2018-05-01T23:04:49.928Z,6.80
2018-05-01T23:07:18.206Z,6.80
2018-05-01T23:09:46.508Z,6.70
2018-05-01T23:12:14.969Z,6.60
2018-05-01T23:14:43.233Z,6.50
2018-05-01T23:17:11.554Z,6.60
2018-05-01T23:19:39.905Z,6.60
2018-05-01T23:22:09.283Z,6.60
2018-05-01T23:24:37.553Z,6.60
2018-05-01T23:27:05.869Z,6.50
2018-05-01T23:29:34.186Z,6.50
2018-05-01T23:32:02.513Z,6.60
2018-05-01T23:34:30.858Z,6.60
2018-05-01T23:36:59.225Z,6.50
2018-05-01T23:39:28.153Z,6.50
2018-05-01T23:41:56.481Z,6.50
2018-05-01T23:44:24.873Z,6.50
2018-05-01T23:46:53.234Z,6.40
2018-05-01T23:49:21.586Z,6.40
2018-05-01T23:51:50.923Z,6.40
2018-05-01T23:54:19.233Z,6.20
2018-05-01T23:56:47.509Z,6.20
2018-05-01T23:59:16.971Z,6.20
